Hauptseite
METAR-TAF:

METAR-TAF

Flughäfen :

RAF Scampton

Scampton, England

Breite: 53-18-27N, Länge: 000-33-03W, Höhe: 62 m

Beobachtung

Neuester Wetterbericht von vor 43 Minuten, um 18:50 UTC
Wind 7 kt aus West/Nordwest
Temperatur 15°C
Luftfeuchtigkeit 67%
Luftdruck 1016 hPa
Sichtweite 10 km oder mehr

METAR: EGXP 221850Z AUTO 29007KT 9999 // BKN060/// BKN150/// 15/09 Q1016

Zeit: 20:33 (19:33 UTC)

Prognose

Neuester Wetterbericht von vor 9 Stunden und 3 Minuten, um 10:30 UTC
Gültige Prognose vom 22 um 12 UTC bis 22 um 17 UTC
Wind 10 kt aus West/Südwest
Sichtweite 10 km oder mehr
Aufgelockert bewölkt in der Höhe von 4500 ft

TAF: EGXP 221030Z 2212/2217 24010KT 9999 SCT045

Wetterbeobachtungen und Prognosen von mehr als 4000 Flughäfen (METAR und TAF Bericht).

Die verfügbaren Stationen werden durch gelbe und rote Markierungen auf der Karte dargestellt.

Führen Sie die Maus auf sie, um den Namen der Station zu sehen.

Darauf klicken, um die Beobachtung von Wetterbeobachtungen und Prognosen zu sehen.

Um die Karte zu ändern : klicken Sie auf den grünen Tasten mit einem schwarzen Kreuz Zum Vergrößern, auf den grünen Button mit einem Gedankenstrich zu verkleinern, oder auf die grünen Pfeile für benachbarte Karten.


METAR-TAF: